(°C)
(°C)
-1°
-1°
-1°
-1°
-1°
-1°
-1°
SZ
SZ
SZ
SZ
ZSZ
ZSZ
Z
(km/h)
4-11
3-9
3-11
4-11
4-10
3-9
3-11
(mm)
0
0
0
0
0
0
0
(%)
0
0
0
0
0
0
0

Výška Slnka nad obzorom

/ -8.2°
sun-icon
UV 3
03:18
20:00
Posledná štvrť (266°)
01:30
09:41

Správy METAR pre lokalitu 55.61°S 49.28°V (UWKD)

Čas Podmienky Teplota/
Rosný bod
Vietor Viditeľnosť Počasie Oblaky Tlak Zmeniť Nespracované
VFR 3°C / -1°C variable 2kt >10km - Clouds and Visibility OK 1000 No Significant change UWKD 221800Z VRB01MPS CAVOK 03/M01 Q1000 R29/70D NOSIG RMK QFE739/0985
VFR 3°C / 0°C 360º 4kt >10km - Clouds and Visibility OK 1000 No Significant change UWKD 221730Z 36002MPS CAVOK 03/M00 Q1000 R29/70D NOSIG RMK QFE739/0986
VFR 5°C / -2°C 360º 4kt >10km - Clouds and Visibility OK 1000 No Significant change UWKD 221700Z 36002MPS CAVOK 05/M02 Q1000 R29/CLRD70 NOSIG RMK QFE739/0986
VFR 5°C / -2°C 360º 6kt >10km - Clouds and Visibility OK 1000 No Significant change UWKD 221630Z 36003MPS CAVOK 05/M02 Q1000 R29/70D NOSIG RMK QFE739/0986
VFR 6°C / -2°C 10º 8kt >10km - Clouds and Visibility OK 1000 No Significant change UWKD 221600Z 01004MPS CAVOK 06/M02 Q1000 R29/CLRD70 NOSIG RMK QFE739/0986
VFR 6°C / -3°C 360º 8kt >10km - Clouds and Visibility OK 1000 No Significant change UWKD 221530Z 36004MPS CAVOK 06/M03 Q1000 R29/70D NOSIG RMK QFE739/0985
VFR 7°C / -2°C 10º 8kt >10km - Clouds and Visibility OK 1000 No Significant change UWKD 221500Z 01004MPS CAVOK 07/M02 Q1000 R29/70D NOSIG RMK QFE739/0986
VFR 7°C / -3°C 10º 10kt >10km - Clouds and Visibility OK 1000 No Significant change UWKD 221430Z 01005MPS CAVOK 07/M03 Q1000 R29/CLRD70 NOSIG RMK QFE739/0986
VFR 7°C / -3°C 350º variable 320º to 050º 6kt >10km - Clouds and Visibility OK 1000 No Significant change UWKD 221400Z 35003MPS 320V050 CAVOK 07/M03 Q1000 R29/CLRD70 NOSIG RMK QFE739/0985
VFR 7°C / -3°C 340º 10kt >10km - Clouds and Visibility OK 1000 No Significant change UWKD 221330Z 34005MPS CAVOK 07/M03 Q1000 R29/CLRD70 NOSIG RMK QFE739/0986
VFR 8°C / -4°C 320º variable 290º to 360º 10kt >10km - Clouds and Visibility OK 1000 No Significant change UWKD 221300Z 32005MPS 290V360 CAVOK 08/M04 Q1000 R29/CLRD70 NOSIG RMK QFE739/0985
VFR 8°C / -3°C 320º 10kt >10km - Clouds and Visibility OK 1000 No Significant change UWKD 221230Z 32005MPS CAVOK 08/M03 Q1000 R29/70D NOSIG RMK QFE739/0986
VFR 8°C / -3°C 320º variable 290º to 350º 8kt >10km - Clouds and Visibility OK 1000 No Significant change UWKD 221200Z 32004MPS 290V350 CAVOK 08/M03 Q1000 R29/CLRD70 NOSIG RMK QFE739/0986
VFR 7°C / -2°C 330º 14kt >10km - Broken Clouds 4300ft 1000 No Significant change UWKD 221130Z 33007MPS 9999 BKN043 07/M02 Q1000 R29/CLRD70 NOSIG RMK QFE739/0986
VFR 7°C / -3°C 330º 12kt >10km - Broken Clouds 4300ft 1000 No Significant change UWKD 221100Z 33006MPS 9999 BKN043 07/M03 Q1000 R29/CLRD70 NOSIG RMK QFE739/0986
VFR 8°C / -3°C 330º variable 300º to 010º 10kt >10km - Broken Clouds 4300ft 1000 No Significant change UWKD 221030Z 33005MPS 300V010 9999 BKN043 08/M03 Q1000 R29/CLRD70 NOSIG RMK QFE739/0986
VFR 7°C / -2°C 300º variable 270º to 350º 8kt >10km - Broken Clouds 4000ft 1000 No Significant change UWKD 221000Z 30004MPS 270V350 9999 BKN040 07/M02 Q1000 R29/70D NOSIG RMK QFE739/0986
VFR 6°C / -2°C 320º variable 300º to 010º 10kt >10km - Broken Clouds 4000ft 1001 No Significant change UWKD 220930Z 32005MPS 300V010 9999 BKN040 06/M02 Q1001 R29/70D NOSIG RMK QFE739/0986
VFR 6°C / -1°C 340º 10kt >10km - Broken Clouds 3600ft 1000 No Significant change UWKD 220900Z 34005MPS 9999 BKN036 06/M01 Q1000 R29/70D NOSIG RMK QFE739/0986
VFR 6°C / -3°C 310º 6kt >10km - Broken Clouds 4000ft 1000 No Significant change UWKD 220830Z 31003MPS 9999 BKN040 06/M03 Q1000 R29/CLRD70 NOSIG RMK QFE739/0986
VFR 6°C / -1°C 340º variable 290º to 020º 6kt >10km - Broken Clouds 3300ft 1001 No Significant change UWKD 220800Z 34003MPS 290V020 9999 BKN033 06/M01 Q1001 R29/70D NOSIG RMK QFE739/0986
VFR 6°C / -1°C 330º variable 280º to 020º 10kt >10km - Broken Clouds 3200ft 1001 No Significant change UWKD 220730Z 33005MPS 280V020 9999 BKN032 06/M01 Q1001 R29/70D NOSIG RMK QFE739/0986
VFR 6°C / -1°C 300º 8kt >10km - Broken Clouds 3200ft 1001 No Significant change UWKD 220700Z 30004MPS 9999 BKN032 06/M01 Q1001 R29/70D NOSIG RMK QFE739/0986
VFR 6°C / -1°C 310º variable 270º to 350º 8kt. Wind Shear present on Runway 29. >10km - Broken Clouds 3300ft 1001 No Significant change UWKD 220630Z 31004MPS 270V350 9999 BKN033 06/M01 Q1001 WS R29 R29/70D NOSIG RMK QFE740/0986

VFR

3°C / -1°C

[Viac]
Vietor variable 2kt
Viditeľnosť >10km
Počasie -
Oblaky Clouds and Visibility OK
Tlak 1000
Zmeniť No Significant change
Nespracované UWKD 221800Z VRB01MPS CAVOK 03/M01 Q1000 R29/70D NOSIG RMK QFE739/0985

VFR

3°C / 0°C

[Viac]
Vietor 360º 4kt
Viditeľnosť >10km
Počasie -
Oblaky Clouds and Visibility OK
Tlak 1000
Zmeniť No Significant change
Nespracované UWKD 221730Z 36002MPS CAVOK 03/M00 Q1000 R29/70D NOSIG RMK QFE739/0986

VFR

5°C / -2°C

[Viac]
Vietor 360º 4kt
Viditeľnosť >10km
Počasie -
Oblaky Clouds and Visibility OK
Tlak 1000
Zmeniť No Significant change
Nespracované UWKD 221700Z 36002MPS CAVOK 05/M02 Q1000 R29/CLRD70 NOSIG RMK QFE739/0986

VFR

5°C / -2°C

[Viac]
Vietor 360º 6kt
Viditeľnosť >10km
Počasie -
Oblaky Clouds and Visibility OK
Tlak 1000
Zmeniť No Significant change
Nespracované UWKD 221630Z 36003MPS CAVOK 05/M02 Q1000 R29/70D NOSIG RMK QFE739/0986

VFR

6°C / -2°C

[Viac]
Vietor 10º 8kt
Viditeľnosť >10km
Počasie -
Oblaky Clouds and Visibility OK
Tlak 1000
Zmeniť No Significant change
Nespracované UWKD 221600Z 01004MPS CAVOK 06/M02 Q1000 R29/CLRD70 NOSIG RMK QFE739/0986

VFR

6°C / -3°C

[Viac]
Vietor 360º 8kt
Viditeľnosť >10km
Počasie -
Oblaky Clouds and Visibility OK
Tlak 1000
Zmeniť No Significant change
Nespracované UWKD 221530Z 36004MPS CAVOK 06/M03 Q1000 R29/70D NOSIG RMK QFE739/0985

VFR

7°C / -2°C

[Viac]
Vietor 10º 8kt
Viditeľnosť >10km
Počasie -
Oblaky Clouds and Visibility OK
Tlak 1000
Zmeniť No Significant change
Nespracované UWKD 221500Z 01004MPS CAVOK 07/M02 Q1000 R29/70D NOSIG RMK QFE739/0986

VFR

7°C / -3°C

[Viac]
Vietor 10º 10kt
Viditeľnosť >10km
Počasie -
Oblaky Clouds and Visibility OK
Tlak 1000
Zmeniť No Significant change
Nespracované UWKD 221430Z 01005MPS CAVOK 07/M03 Q1000 R29/CLRD70 NOSIG RMK QFE739/0986

VFR

7°C / -3°C

[Viac]
Vietor 350º variable 320º to 050º 6kt
Viditeľnosť >10km
Počasie -
Oblaky Clouds and Visibility OK
Tlak 1000
Zmeniť No Significant change
Nespracované UWKD 221400Z 35003MPS 320V050 CAVOK 07/M03 Q1000 R29/CLRD70 NOSIG RMK QFE739/0985

VFR

7°C / -3°C

[Viac]
Vietor 340º 10kt
Viditeľnosť >10km
Počasie -
Oblaky Clouds and Visibility OK
Tlak 1000
Zmeniť No Significant change
Nespracované UWKD 221330Z 34005MPS CAVOK 07/M03 Q1000 R29/CLRD70 NOSIG RMK QFE739/0986

VFR

8°C / -4°C

[Viac]
Vietor 320º variable 290º to 360º 10kt
Viditeľnosť >10km
Počasie -
Oblaky Clouds and Visibility OK
Tlak 1000
Zmeniť No Significant change
Nespracované UWKD 221300Z 32005MPS 290V360 CAVOK 08/M04 Q1000 R29/CLRD70 NOSIG RMK QFE739/0985

VFR

8°C / -3°C

[Viac]
Vietor 320º 10kt
Viditeľnosť >10km
Počasie -
Oblaky Clouds and Visibility OK
Tlak 1000
Zmeniť No Significant change
Nespracované UWKD 221230Z 32005MPS CAVOK 08/M03 Q1000 R29/70D NOSIG RMK QFE739/0986

VFR

8°C / -3°C

[Viac]
Vietor 320º variable 290º to 350º 8kt
Viditeľnosť >10km
Počasie -
Oblaky Clouds and Visibility OK
Tlak 1000
Zmeniť No Significant change
Nespracované UWKD 221200Z 32004MPS 290V350 CAVOK 08/M03 Q1000 R29/CLRD70 NOSIG RMK QFE739/0986

VFR

7°C / -2°C

[Viac]
Vietor 330º 14kt
Viditeľnosť >10km
Počasie -
Oblaky Broken Clouds 4300ft
Tlak 1000
Zmeniť No Significant change
Nespracované UWKD 221130Z 33007MPS 9999 BKN043 07/M02 Q1000 R29/CLRD70 NOSIG RMK QFE739/0986

VFR

7°C / -3°C

[Viac]
Vietor 330º 12kt
Viditeľnosť >10km
Počasie -
Oblaky Broken Clouds 4300ft
Tlak 1000
Zmeniť No Significant change
Nespracované UWKD 221100Z 33006MPS 9999 BKN043 07/M03 Q1000 R29/CLRD70 NOSIG RMK QFE739/0986

VFR

8°C / -3°C

[Viac]
Vietor 330º variable 300º to 010º 10kt
Viditeľnosť >10km
Počasie -
Oblaky Broken Clouds 4300ft
Tlak 1000
Zmeniť No Significant change
Nespracované UWKD 221030Z 33005MPS 300V010 9999 BKN043 08/M03 Q1000 R29/CLRD70 NOSIG RMK QFE739/0986

VFR

7°C / -2°C

[Viac]
Vietor 300º variable 270º to 350º 8kt
Viditeľnosť >10km
Počasie -
Oblaky Broken Clouds 4000ft
Tlak 1000
Zmeniť No Significant change
Nespracované UWKD 221000Z 30004MPS 270V350 9999 BKN040 07/M02 Q1000 R29/70D NOSIG RMK QFE739/0986

VFR

6°C / -2°C

[Viac]
Vietor 320º variable 300º to 010º 10kt
Viditeľnosť >10km
Počasie -
Oblaky Broken Clouds 4000ft
Tlak 1001
Zmeniť No Significant change
Nespracované UWKD 220930Z 32005MPS 300V010 9999 BKN040 06/M02 Q1001 R29/70D NOSIG RMK QFE739/0986

VFR

6°C / -1°C

[Viac]
Vietor 340º 10kt
Viditeľnosť >10km
Počasie -
Oblaky Broken Clouds 3600ft
Tlak 1000
Zmeniť No Significant change
Nespracované UWKD 220900Z 34005MPS 9999 BKN036 06/M01 Q1000 R29/70D NOSIG RMK QFE739/0986

VFR

6°C / -3°C

[Viac]
Vietor 310º 6kt
Viditeľnosť >10km
Počasie -
Oblaky Broken Clouds 4000ft
Tlak 1000
Zmeniť No Significant change
Nespracované UWKD 220830Z 31003MPS 9999 BKN040 06/M03 Q1000 R29/CLRD70 NOSIG RMK QFE739/0986

VFR

6°C / -1°C

[Viac]
Vietor 340º variable 290º to 020º 6kt
Viditeľnosť >10km
Počasie -
Oblaky Broken Clouds 3300ft
Tlak 1001
Zmeniť No Significant change
Nespracované UWKD 220800Z 34003MPS 290V020 9999 BKN033 06/M01 Q1001 R29/70D NOSIG RMK QFE739/0986

VFR

6°C / -1°C

[Viac]
Vietor 330º variable 280º to 020º 10kt
Viditeľnosť >10km
Počasie -
Oblaky Broken Clouds 3200ft
Tlak 1001
Zmeniť No Significant change
Nespracované UWKD 220730Z 33005MPS 280V020 9999 BKN032 06/M01 Q1001 R29/70D NOSIG RMK QFE739/0986

VFR

6°C / -1°C

[Viac]
Vietor 300º 8kt
Viditeľnosť >10km
Počasie -
Oblaky Broken Clouds 3200ft
Tlak 1001
Zmeniť No Significant change
Nespracované UWKD 220700Z 30004MPS 9999 BKN032 06/M01 Q1001 R29/70D NOSIG RMK QFE739/0986

VFR

6°C / -1°C

[Viac]
Vietor 310º variable 270º to 350º 8kt. Wind Shear present on Runway 29.
Viditeľnosť >10km
Počasie -
Oblaky Broken Clouds 3300ft
Tlak 1001
Zmeniť No Significant change
Nespracované UWKD 220630Z 31004MPS 270V350 9999 BKN033 06/M01 Q1001 WS R29 R29/70D NOSIG RMK QFE740/0986

Správy TAF pre lokalitu 55.61°S 49.28°V (UWKD)

From till


Maximum Temperature 9ºC on . Minimum Temperature 1ºC on .
From till Wind 340º 6kt. Visibility 10km or more. Broken Clouds 2000ft.

Nespracované: TAF UWKD 221700Z 2218/2318 34003MPS 9999 BKN020 TX09/2312Z TN01/2301Z

Radar a krátkodobá predpoveď zrážok pre 55.61°S 49.28°V

Mrholenie
Slabý
Mierne
Ťažké
Veľmi ťažké
Krúpy

Značka polohy je umiestnená na 55.61°S 49.28°V. Táto animácia ukazuje zrážky pozorované radarom za poslednú hodinu a tiež 1h predpoveď. Mrholenie alebo slabé sneženie môže byť pre radar neviditeľné. Intenzita zrážok je farebne označená od svetlomodrej po oranžovú.

Aktuálne satelitné snímky a snímky zrážok pre lokalitu 55.61°S 49.28°V

Značka polohy je umiestnená na55.61°S 49.28°V. [Viac]

Satelitné snímky zhotovované v reálnom čase využívajú viditeľné svetlo počas dňa a infračervené žiarenie počas noci. Vzhľadom na to, že infračervené žiarenie zisťuje teplotné rozdiely, snímka v noci nie je tmavá. Nízke oblaky a hmlu je, žiaľ, ťažké odlíšiť od prízemných teplôt, preto môžu byť počas noci takmer neviditeľné. Meteosat satelitné snímky pre Európu sú aktualizované v reálnom čase každých 5 minút. Snímky z GOES-16/GOES-17 (Severná a Južná Amerika) a Himawari (Ázia) sú aktualizované každých 10 minút.

Copyright 2022 EUMETSAT / meteoblue. / Copyright 2022 meteoblue

Späť nahor